Time;durP1;ratioP1;P1;durP2;ratioP2;P2;SDS_P1;SDS_P2;PMS_P1;PMS_P2;Temp;Humidity;BMP_temperature;BMP_pressure;BME280_temperature;BME280_humidity;BME280_pressure;Samples;Min_cycle;Max_cycle;Signal;HPM_P1;HPM_P2
2023/01/03 00:01:46;;;;;;;3.20;1.85;;;8.30;99.90;;;;;;6204736;28;20511;-80
2023/01/03 00:04:48;;;;;;;1.85;1.42;;;8.20;99.90;;;;;;6192023;28;20054;-80
2023/01/03 00:07:49;;;;;;;2.67;1.40;;;8.20;99.90;;;;;;6180131;28;20524;-79
2023/01/03 00:10:52;;;;;;;1.40;1.15;;;8.10;99.90;;;;;;6183948;28;20050;-81
2023/01/03 00:13:53;;;;;;;3.60;1.63;;;8.00;99.90;;;;;;6204028;28;20057;-80
2023/01/03 00:16:58;;;;;;;1.50;1.40;;;8.00;99.90;;;;;;6189280;28;20042;-81
2023/01/03 00:20:00;;;;;;;1.75;1.55;;;7.90;99.90;;;;;;6202684;28;20050;-80
2023/01/03 01:29:59;;;;;;;3.70;1.80;;;7.50;99.90;;;;;;6188483;28;20050;-82
2023/01/03 01:33:15;;;;;;;3.33;1.35;;;7.40;99.90;;;;;;6190674;28;20056;-83
2023/01/03 01:40:07;;;;;;;1.40;1.30;;;7.20;99.90;;;;;;6088232;28;20045;-82
2023/01/03 02:02:38;;;;;;;2.20;2.00;;;7.20;99.90;;;;;;5995205;29;20316;-83
2023/01/03 02:05:52;;;;;;;2.10;1.88;;;7.30;99.90;;;;;;6002739;29;20855;-83
2023/01/03 02:13:12;;;;;;;1.92;1.83;;;7.10;99.90;;;;;;6107100;29;20056;-85
2023/01/03 02:20:24;;;;;;;2.50;2.08;;;6.90;99.90;;;;;;6171862;28;20059;-82
2023/01/03 02:24:06;;;;;;;2.22;2.03;;;6.90;99.90;;;;;;6175546;28;20049;-83
2023/01/03 02:27:38;;;;;;;3.88;2.25;;;6.80;99.90;;;;;;6218754;28;20046;-82
2023/01/03 02:30:47;;;;;;;2.75;1.67;;;6.70;99.90;;;;;;6216392;28;20065;-82
2023/01/03 02:33:56;;;;;;;1.88;1.67;;;6.70;99.90;;;;;;6223968;28;20057;-82
2023/01/03 02:37:48;;;;;;;2.28;2.08;;;6.50;99.90;;;;;;6222689;28;20046;-82
2023/01/03 02:40:58;;;;;;;2.00;1.88;;;6.50;99.90;;;;;;6226842;28;20128;-83
2023/01/03 02:44:08;;;;;;;2.70;2.33;;;6.40;99.90;;;;;;6228108;28;20052;-83
2023/01/03 02:47:15;;;;;;;3.58;1.80;;;6.30;99.90;;;;;;6218443;28;20100;-83
2023/01/03 02:50:20;;;;;;;1.88;1.58;;;6.20;99.90;;;;;;6227236;28;20247;-82
2023/01/03 02:53:27;;;;;;;5.82;1.80;;;6.10;99.90;;;;;;6227978;28;20038;-83
2023/01/03 02:56:34;;;;;;;5.53;1.83;;;6.00;99.90;;;;;;6224705;28;20050;-82
2023/01/03 02:59:39;;;;;;;2.15;1.70;;;6.00;99.90;;;;;;6203871;28;20046;-82
2023/01/03 03:02:48;;;;;;;2.15;1.90;;;5.90;99.90;;;;;;6227623;28;20045;-82
2023/01/03 03:05:55;;;;;;;1.73;1.63;;;5.80;99.90;;;;;;6228098;28;20181;-82
2023/01/03 03:08:58;;;;;;;3.53;2.17;;;5.70;99.90;;;;;;6227180;28;20050;-81
2023/01/03 03:15:23;;;;;;;2.42;1.92;;;5.70;99.90;;;;;;6227988;28;20046;-82
2023/01/03 03:18:33;;;;;;;5.43;1.92;;;5.60;99.90;;;;;;6226662;28;20050;-83
2023/01/03 03:24:57;;;;;;;6.03;3.42;;;5.40;99.90;;;;;;6227471;28;20047;-82
2023/01/03 03:31:25;;;;;;;2.78;1.73;;;5.30;99.90;;;;;;6219614;28;20046;-82
2023/01/03 03:34:36;;;;;;;3.22;1.45;;;5.30;99.90;;;;;;6202310;28;20078;-82
2023/01/03 03:37:40;;;;;;;2.65;2.40;;;5.40;99.90;;;;;;6203851;28;20062;-82
2023/01/03 03:47:49;;;;;;;3.88;2.58;;;5.30;99.90;;;;;;6200299;28;20508;-83
2023/01/03 03:50:55;;;;;;;2.42;2.13;;;5.20;99.90;;;;;;6201091;28;20055;-82
2023/01/03 03:54:00;;;;;;;3.50;2.90;;;5.20;99.90;;;;;;6202051;28;20057;-82
2023/01/03 03:57:08;;;;;;;3.17;2.40;;;5.20;99.90;;;;;;6197752;28;20078;-82
2023/01/03 04:00:15;;;;;;;4.57;2.13;;;5.20;99.90;;;;;;6182871;28;20042;-82
2023/01/03 04:03:19;;;;;;;3.05;2.17;;;5.20;99.90;;;;;;6203800;28;20122;-83
2023/01/03 04:06:28;;;;;;;2.15;1.77;;;5.20;99.90;;;;;;6206092;28;20058;-82
2023/01/03 04:09:31;;;;;;;3.78;1.83;;;5.10;99.90;;;;;;6201464;28;20070;-82
2023/01/03 04:12:33;;;;;;;3.80;2.22;;;5.00;99.90;;;;;;6200466;28;20056;-83
2023/01/03 04:15:35;;;;;;;3.88;2.75;;;5.00;99.90;;;;;;6203644;28;20531;-82
2023/01/03 04:18:38;;;;;;;3.88;2.30;;;4.90;99.90;;;;;;6200168;28;20046;-82
2023/01/03 04:21:41;;;;;;;2.05;1.92;;;5.00;99.90;;;;;;6202681;28;20496;-82
2023/01/03 04:24:43;;;;;;;3.53;2.38;;;4.90;99.90;;;;;;6206520;28;20097;-82
2023/01/03 04:27:44;;;;;;;2.80;2.45;;;4.90;99.90;;;;;;6212079;28;20030;-84
2023/01/03 04:30:47;;;;;;;5.97;2.10;;;4.90;99.90;;;;;;6211981;28;20046;-82
2023/01/03 04:33:50;;;;;;;3.03;2.20;;;4.90;99.90;;;;;;6203090;28;20046;-81
2023/01/03 04:36:52;;;;;;;3.00;2.53;;;4.90;99.90;;;;;;6202890;28;20053;-81
2023/01/03 04:40:14;;;;;;;3.40;1.85;;;4.90;99.90;;;;;;6195854;28;20126;-82
2023/01/03 04:46:45;;;;;;;3.13;2.22;;;4.80;99.90;;;;;;6199840;28;20050;-83
2023/01/03 04:50:08;;;;;;;5.75;2.95;;;4.70;99.90;;;;;;6215408;28;20061;-83
2023/01/03 05:00:24;;;;;;;3.25;2.33;;;4.60;99.90;;;;;;6199804;28;20042;-83
2023/01/03 05:03:27;;;;;;;4.07;2.22;;;4.60;99.90;;;;;;6201315;28;20053;-83
2023/01/03 05:18:28;;;;;;;5.05;2.40;;;4.60;99.90;;;;;;6193308;28;20034;-83
2023/01/03 05:32:08;;;;;;;2.47;1.95;;;4.50;99.90;;;;;;6197063;28;20389;-83
2023/01/03 05:35:29;;;;;;;2.33;1.83;;;4.40;99.90;;;;;;6205209;28;20069;-83
2023/01/03 05:38:38;;;;;;;3.05;2.35;;;4.40;99.90;;;;;;6220680;28;20054;-83
2023/01/03 05:45:05;;;;;;;6.15;2.08;;;4.30;99.90;;;;;;6215194;28;20046;-84
2023/01/03 05:48:08;;;;;;;3.53;2.25;;;4.20;99.90;;;;;;6204739;28;20052;-83
2023/01/03 05:51:11;;;;;;;9.80;3.28;;;4.20;99.90;;;;;;6200609;28;20049;-84
2023/01/03 05:54:14;;;;;;;3.33;2.42;;;4.20;99.90;;;;;;6201156;28;20054;-83
2023/01/03 05:57:16;;;;;;;3.67;2.58;;;4.10;99.90;;;;;;6200499;28;20652;-83
2023/01/03 06:00:18;;;;;;;2.88;2.05;;;4.10;99.90;;;;;;6214606;28;20049;-83
2023/01/03 06:03:20;;;;;;;2.10;1.90;;;4.10;99.90;;;;;;6224021;28;20052;-83
2023/01/03 06:06:23;;;;;;;5.30;2.97;;;4.10;99.90;;;;;;6225149;28;20054;-83
2023/01/03 06:09:25;;;;;;;5.72;2.85;;;4.00;99.90;;;;;;6251907;28;20073;-82
2023/01/03 06:12:27;;;;;;;5.00;2.40;;;4.10;99.90;;;;;;6229804;28;20050;-83
2023/01/03 06:15:28;;;;;;;5.07;3.22;;;4.10;99.90;;;;;;6229473;28;20045;-83
2023/01/03 06:18:29;;;;;;;2.88;2.15;;;4.10;99.90;;;;;;6228332;28;20388;-83
2023/01/03 06:21:32;;;;;;;4.28;2.60;;;4.10;99.90;;;;;;6231702;28;20056;-83
2023/01/03 06:24:34;;;;;;;4.40;3.63;;;4.10;99.90;;;;;;6213755;23;20046;-80
2023/01/03 06:27:36;;;;;;;5.90;3.58;;;4.00;99.90;;;;;;6190785;28;20129;-80
2023/01/03 06:30:37;;;;;;;7.78;3.08;;;4.00;99.90;;;;;;6205384;28;20050;-80
2023/01/03 06:33:39;;;;;;;4.45;2.85;;;4.00;99.90;;;;;;6208808;28;20054;-80
2023/01/03 06:36:42;;;;;;;12.75;3.17;;;4.00;99.90;;;;;;6207056;28;20624;-80
2023/01/03 06:39:44;;;;;;;5.85;2.92;;;4.00;99.90;;;;;;6207270;28;20532;-79
2023/01/03 06:42:46;;;;;;;4.85;2.92;;;3.90;99.90;;;;;;6209358;28;20049;-80
2023/01/03 06:55:54;;;;;;;5.30;3.00;;;4.00;99.90;;;;;;6212074;28;20042;-80
2023/01/03 06:58:56;;;;;;;3.92;3.10;;;4.00;99.90;;;;;;6206734;28;20047;-80
2023/01/03 07:01:58;;;;;;;10.00;3.47;;;4.00;99.90;;;;;;6203963;28;20699;-79
2023/01/03 07:04:59;;;;;;;4.38;2.92;;;3.90;99.90;;;;;;6189005;28;20069;-80
2023/01/03 07:08:02;;;;;;;5.97;3.95;;;3.90;99.90;;;;;;6186437;28;20047;-79
2023/01/03 07:11:04;;;;;;;5.15;3.83;;;3.90;99.90;;;;;;6187886;28;20268;-80
2023/01/03 07:14:07;;;;;;;13.73;7.82;;;3.80;99.90;;;;;;6188704;28;20047;-80
2023/01/03 07:17:08;;;;;;;7.43;3.78;;;3.80;99.90;;;;;;6188415;28;20516;-80
2023/01/03 07:20:10;;;;;;;4.70;3.80;;;3.70;99.90;;;;;;6185951;28;20435;-79
2023/01/03 07:23:13;;;;;;;11.35;3.03;;;3.70;99.90;;;;;;6193416;28;20133;-80
2023/01/03 07:26:15;;;;;;;5.03;3.33;;;3.70;99.90;;;;;;6210948;28;20114;-80
2023/01/03 07:29:17;;;;;;;4.20;3.10;;;3.70;99.90;;;;;;6212322;28;20519;-80
2023/01/03 07:32:18;;;;;;;11.90;5.38;;;3.60;99.90;;;;;;6212410;28;20525;-80
2023/01/03 07:35:20;;;;;;;5.80;3.95;;;3.60;99.90;;;;;;6210262;28;20518;-79
2023/01/03 07:38:23;;;;;;;11.25;3.55;;;3.60;99.90;;;;;;6210209;28;20084;-80
2023/01/03 07:43:35;;;;;;;7.00;4.82;;;3.60;99.90;;;;;;6209554;28;20061;-80
2023/01/03 07:44:46;;;;;;;7.55;3.47;;;3.60;99.90;;;;;;6208811;28;20077;-80
2023/01/03 07:47:47;;;;;;;6.63;5.15;;;3.60;99.90;;;;;;6208141;28;20106;-80
2023/01/03 07:50:49;;;;;;;4.35;3.20;;;3.70;99.90;;;;;;6210833;28;20038;-80
2023/01/03 07:53:53;;;;;;;8.60;4.30;;;3.70;99.90;;;;;;6207305;28;20407;-79
2023/01/03 07:56:55;;;;;;;5.38;3.92;;;3.70;99.90;;;;;;6206901;28;20046;-80
2023/01/03 07:59:57;;;;;;;4.15;3.75;;;3.80;99.90;;;;;;6205729;28;20046;-79
2023/01/03 08:02:58;;;;;;;6.47;4.25;;;3.80;99.90;;;;;;6175537;28;20537;-80
2023/01/03 08:06:02;;;;;;;7.40;3.03;;;3.80;99.90;;;;;;6210087;28;20049;-79
2023/01/03 08:15:44;;;;;;;8.63;3.63;;;3.80;99.90;;;;;;6182924;28;20047;-79
2023/01/03 08:18:46;;;;;;;4.55;3.35;;;3.80;99.90;;;;;;6181069;28;20046;-81
2023/01/03 08:21:47;;;;;;;5.97;5.07;;;3.90;99.90;;;;;;6183183;28;20055;-79
2023/01/03 08:24:50;;;;;;;4.25;2.58;;;3.90;99.90;;;;;;6179824;28;20046;-79
2023/01/03 08:27:52;;;;;;;5.38;2.55;;;3.90;99.90;;;;;;6181395;28;20042;-80
2023/01/03 08:30:54;;;;;;;5.30;2.65;;;4.00;99.90;;;;;;6172516;28;20062;-79
2023/01/03 08:34:00;;;;;;;3.72;2.80;;;4.00;99.90;;;;;;6172460;28;20049;-79
2023/01/03 08:37:06;;;;;;;12.57;7.22;;;4.10;99.90;;;;;;6181837;28;20516;-79
2023/01/03 08:40:14;;;;;;;7.57;5.63;;;4.20;99.90;;;;;;6170646;28;20130;-79
2023/01/03 08:43:16;;;;;;;7.28;4.20;;;4.40;99.90;;;;;;6167010;28;20416;-79
2023/01/03 08:46:19;;;;;;;8.40;4.85;;;4.60;99.90;;;;;;6181975;28;20054;-79
2023/01/03 08:49:21;;;;;;;7.85;6.60;;;4.70;99.90;;;;;;6189831;28;20113;-79
2023/01/03 08:52:23;;;;;;;8.63;5.72;;;4.80;99.90;;;;;;6210488;28;20046;-79
2023/01/03 08:55:26;;;;;;;4.63;3.33;;;5.00;99.90;;;;;;6204362;28;20472;-79
2023/01/03 08:58:28;;;;;;;160.43;76.93;;;5.00;99.90;;;;;;6204297;28;20092;-80
2023/01/03 09:01:29;;;;;;;31.17;17.33;;;5.10;99.90;;;;;;6199941;28;20054;-79
2023/01/03 09:04:31;;;;;;;10.45;7.22;;;5.10;99.90;;;;;;6178482;28;20051;-77
2023/01/03 09:07:33;;;;;;;9.45;5.00;;;5.20;99.90;;;;;;6175754;28;20051;-78
2023/01/03 09:10:36;;;;;;;5.65;5.05;;;5.20;99.90;;;;;;6178417;28;20054;-78
2023/01/03 09:13:38;;;;;;;4.80;3.90;;;5.20;99.90;;;;;;6178614;28;20055;-78
2023/01/03 09:16:40;;;;;;;4.43;4.03;;;5.30;99.90;;;;;;6176980;28;20440;-79
2023/01/03 09:19:41;;;;;;;6.15;3.85;;;5.30;99.90;;;;;;6175814;28;20500;-79
2023/01/03 09:22:43;;;;;;;7.13;4.22;;;5.40;99.90;;;;;;6180447;28;20053;-79
2023/01/03 09:25:47;;;;;;;11.32;4.40;;;5.40;99.90;;;;;;6202777;28;20050;-78
2023/01/03 09:28:49;;;;;;;4.65;3.67;;;5.40;99.90;;;;;;6202792;28;20057;-79
2023/01/03 09:31:50;;;;;;;6.18;3.25;;;5.50;99.90;;;;;;6198810;28;20046;-78
2023/01/03 09:34:52;;;;;;;8.07;7.35;;;5.50;99.90;;;;;;6197067;28;20122;-78
2023/01/03 09:37:54;;;;;;;15.88;5.20;;;5.70;99.90;;;;;;6203960;28;20484;-77
2023/01/03 09:40:59;;;;;;;5.13;3.83;;;6.00;99.90;;;;;;6199093;28;20047;-77
2023/01/03 09:44:03;;;;;;;6.13;4.30;;;6.40;99.90;;;;;;6196016;28;20046;-78
2023/01/03 09:47:05;;;;;;;9.27;4.43;;;6.80;99.90;;;;;;6200227;28;20042;-78
2023/01/03 09:50:17;;;;;;;5.82;4.47;;;7.20;99.90;;;;;;6200123;28;20050;-79
2023/01/03 10:03:45;;;;;;;6.03;3.58;;;9.30;99.90;;;;;;6193191;28;20117;-80
2023/01/03 10:06:56;;;;;;;5.97;4.30;;;9.80;99.90;;;;;;6187310;28;20097;-79
2023/01/03 10:10:02;;;;;;;3.33;2.72;;;10.30;99.90;;;;;;6202713;28;20237;-80
2023/01/03 10:13:18;;;;;;;6.32;5.25;;;10.70;99.90;;;;;;6206869;28;20057;-82
2023/01/03 10:16:25;;;;;;;3.10;2.80;;;10.90;99.90;;;;;;6204716;28;20531;-79
2023/01/03 10:19:53;;;;;;;6.70;3.38;;;11.20;99.90;;;;;;6198964;28;20057;-78
2023/01/03 10:22:56;;;;;;;4.78;4.25;;;11.60;99.90;;;;;;6173910;28;20039;-78
2023/01/03 10:25:58;;;;;;;6.35;3.15;;;11.90;99.90;;;;;;6180232;28;20062;-79
2023/01/03 10:29:01;;;;;;;5.88;3.28;;;12.30;99.90;;;;;;6180397;28;20046;-81
2023/01/03 10:32:18;;;;;;;4.18;3.83;;;12.70;99.90;;;;;;6194265;28;20049;-81
2023/01/03 10:35:22;;;;;;;5.80;2.85;;;13.10;99.90;;;;;;6184223;28;20047;-80
2023/01/03 10:38:24;;;;;;;2.38;1.95;;;13.30;99.90;;;;;;6182097;28;20209;-80
2023/01/03 10:41:33;;;;;;;2.33;1.67;;;13.60;99.90;;;;;;6180022;28;20055;-79
2023/01/03 10:44:36;;;;;;;3.83;1.92;;;13.90;99.90;;;;;;6177857;28;20629;-80
2023/01/03 10:47:38;;;;;;;2.65;1.80;;;14.20;99.90;;;;;;6196609;28;20050;-81
2023/01/03 10:50:39;;;;;;;3.03;1.90;;;14.50;99.90;;;;;;6206685;28;20050;-82
2023/01/03 10:53:42;;;;;;;3.45;1.80;;;14.80;99.90;;;;;;6209977;28;20062;-81
2023/01/03 10:56:44;;;;;;;3.60;2.45;;;15.20;99.90;;;;;;6212608;28;20050;-80
2023/01/03 10:59:50;;;;;;;2.33;2.17;;;15.40;99.90;;;;;;6211641;28;20047;-81
2023/01/03 11:02:52;;;;;;;3.17;2.38;;;15.70;99.90;;;;;;6207978;28;20401;-80
2023/01/03 11:06:08;;;;;;;1.75;1.60;;;15.80;99.90;;;;;;6211976;28;20042;-82
2023/01/03 11:09:12;;;;;;;2.80;2.55;;;16.00;99.90;;;;;;6213963;28;20053;-81
2023/01/03 11:12:18;;;;;;;2.47;2.00;;;16.20;99.90;;;;;;6209568;28;20050;-80
2023/01/03 11:15:36;;;;;;;2.30;1.33;;;16.40;99.90;;;;;;6208111;28;20045;-80
2023/01/03 11:18:37;;;;;;;3.92;1.30;;;16.70;99.90;;;;;;6208162;28;20050;-80
2023/01/03 11:21:45;;;;;;;2.13;1.92;;;16.90;99.90;;;;;;6208384;28;20050;-79
2023/01/03 11:24:57;;;;;;;;;;;17.10;99.90;;;;;;6208840;28;20050;-79
2023/01/03 11:28:10;;;;;;;4.72;1.65;;;17.30;99.90;;;;;;6208436;28;19936;-79
2023/01/03 11:31:23;;;;;;;2.38;2.08;;;17.40;99.90;;;;;;6211675;28;20042;-80
2023/01/03 11:34:43;;;;;;;1.95;1.73;;;17.40;99.90;;;;;;6210692;28;20054;-80
2023/01/03 11:37:52;;;;;;;1.42;1.33;;;17.30;99.90;;;;;;6198292;28;20050;-79
2023/01/03 11:41:07;;;;;;;2.25;2.05;;;17.50;99.90;;;;;;6187981;28;20054;-79
2023/01/03 11:44:26;;;;;;;2.08;1.85;;;17.60;99.90;;;;;;6165775;28;20051;-78
2023/01/03 11:47:39;;;;;;;1.42;1.30;;;17.70;99.70;;;;;;6154557;28;20160;-80
2023/01/03 11:50:50;;;;;;;2.47;1.80;;;17.90;99.30;;;;;;6152249;28;20078;-78
2023/01/03 11:54:04;;;;;;;1.42;1.33;;;18.00;98.70;;;;;;6155197;29;20058;-80
2023/01/03 11:57:15;;;;;;;3.45;1.70;;;17.90;98.20;;;;;;6156686;28;20053;-78
2023/01/03 12:00:26;;;;;;;4.07;1.33;;;18.10;98.10;;;;;;6155279;28;20445;-79
2023/01/03 12:03:46;;;;;;;3.17;1.55;;;18.50;97.40;;;;;;6181267;28;20050;-80
2023/01/03 12:06:59;;;;;;;8.98;1.85;;;18.70;96.60;;;;;;6198785;28;20054;-79
2023/01/03 12:10:10;;;;;;;2.92;1.58;;;18.60;95.80;;;;;;6210342;28;20507;-79
2023/01/03 12:13:21;;;;;;;3.38;1.55;;;18.50;95.60;;;;;;6189606;28;20042;-79
2023/01/03 12:16:29;;;;;;;2.17;1.98;;;18.60;95.40;;;;;;6187514;28;20043;-79
2023/01/03 12:19:41;;;;;;;2.08;1.23;;;18.80;95.10;;;;;;6184916;28;20047;-79
2023/01/03 12:22:47;;;;;;;1.27;1.17;;;18.80;94.50;;;;;;6183996;28;20050;-78
2023/01/03 12:25:53;;;;;;;3.40;1.50;;;19.10;94.30;;;;;;6187133;28;20142;-81
2023/01/03 12:29:00;;;;;;;3.05;1.58;;;19.20;93.90;;;;;;6190400;28;20524;-79
2023/01/03 12:32:06;;;;;;;7.40;2.90;;;19.20;92.70;;;;;;6193287;28;20074;-79
2023/01/03 12:35:22;;;;;;;2.92;2.72;;;19.20;92.60;;;;;;6182776;28;20408;-78
2023/01/03 12:38:28;;;;;;;1.77;0.88;;;19.10;92.20;;;;;;6186534;28;20397;-80
2023/01/03 12:41:36;;;;;;;2.90;1.33;;;19.10;91.60;;;;;;6188516;28;20515;-80
2023/01/03 12:44:40;;;;;;;2.53;1.08;;;19.00;91.50;;;;;;6198112;28;20110;-82
2023/01/03 12:47:49;;;;;;;6.00;5.32;;;18.80;91.50;;;;;;6210513;28;20053;-81
2023/01/03 12:50:53;;;;;;;2.85;1.48;;;19.00;91.60;;;;;;6212382;28;20500;-79
2023/01/03 12:54:13;;;;;;;17.23;15.02;;;19.20;90.80;;;;;;6191526;28;20050;-79
2023/01/03 12:57:38;;;;;;;1.67;1.00;;;19.00;90.40;;;;;;6189350;28;20047;-80
2023/01/03 13:00:53;;;;;;;2.05;0.85;;;19.10;89.70;;;;;;6193447;28;20050;-79
2023/01/03 13:04:00;;;;;;;3.33;3.03;;;18.70;88.80;;;;;;6192349;28;20073;-81
2023/01/03 13:07:07;;;;;;;4.72;4.22;;;18.50;90.00;;;;;;6197648;28;20050;-80
2023/01/03 13:10:16;;;;;;;4.82;3.70;;;18.70;89.40;;;;;;6193469;28;20052;-81
2023/01/03 13:13:19;;;;;;;4.00;1.40;;;18.60;90.40;;;;;;6211235;28;20049;-80
2023/01/03 13:16:40;;;;;;;4.28;2.53;;;18.60;90.10;;;;;;6209319;28;20046;-79
2023/01/03 13:19:54;;;;;;;4.22;3.28;;;18.80;90.00;;;;;;6208312;28;20504;-79
2023/01/03 13:22:58;;;;;;;1.15;1.00;;;19.00;89.60;;;;;;6192386;28;20043;-81
2023/01/03 13:26:21;;;;;;;17.42;13.25;;;18.90;88.80;;;;;;6186296;28;20448;-79
2023/01/03 13:29:44;;;;;;;2.90;1.15;;;18.60;88.00;;;;;;6184026;28;20061;-78
2023/01/03 13:32:53;;;;;;;10.70;1.92;;;18.20;88.10;;;;;;6194914;28;20046;-79
2023/01/03 13:36:00;;;;;;;2.03;1.83;;;17.60;90.40;;;;;;6206142;28;20046;-79
2023/01/03 13:39:37;;;;;;;4.22;1.95;;;17.70;90.90;;;;;;6210110;28;20057;-79
2023/01/03 13:42:40;;;;;;;1.85;1.02;;;17.70;90.80;;;;;;6209806;28;20046;-79
2023/01/03 13:45:52;;;;;;;2.47;1.05;;;17.70;90.40;;;;;;6210786;28;20042;-78
2023/01/03 13:48:58;;;;;;;1.90;1.20;;;17.20;89.60;;;;;;6208083;28;20050;-79
2023/01/03 13:52:04;;;;;;;3.47;1.60;;;16.90;91.00;;;;;;6208572;28;20061;-79
2023/01/03 13:55:35;;;;;;;5.82;4.13;;;17.10;90.90;;;;;;6209906;28;20061;-79
2023/01/03 13:58:42;;;;;;;3.15;2.10;;;16.90;90.30;;;;;;6204658;28;20051;-79
2023/01/03 14:02:02;;;;;;;1.27;1.17;;;16.70;90.60;;;;;;6200507;28;20435;-79
2023/01/03 14:05:19;;;;;;;2.30;1.30;;;16.20;91.10;;;;;;6201226;28;20309;-79
2023/01/03 14:08:40;;;;;;;4.47;1.13;;;16.10;92.00;;;;;;6201830;28;20054;-79
2023/01/03 14:12:09;;;;;;;2.10;1.77;;;16.40;91.90;;;;;;6195931;28;20046;-78
2023/01/03 14:15:15;;;;;;;6.15;2.35;;;16.60;91.70;;;;;;6203470;28;20141;-79
2023/01/03 14:18:21;;;;;;;4.57;2.20;;;16.60;91.60;;;;;;6203690;28;20058;-79
2023/01/03 14:21:26;;;;;;;1.02;0.80;;;16.80;91.50;;;;;;6203985;28;20043;-79
2023/01/03 14:24:30;;;;;;;1.60;1.20;;;16.80;91.30;;;;;;6179636;28;20432;-79
2023/01/03 14:27:39;;;;;;;1.40;1.30;;;16.80;91.10;;;;;;6194659;28;20425;-79
2023/01/03 14:30:42;;;;;;;1.27;1.10;;;16.10;91.10;;;;;;6203561;28;20054;-80
2023/01/03 14:33:50;;;;;;;2.38;0.80;;;15.40;91.90;;;;;;6194169;28;20459;-80
2023/01/03 14:36:51;;;;;;;1.75;1.02;;;14.90;92.60;;;;;;6206487;28;20054;-79
2023/01/03 14:39:54;;;;;;;1.75;1.35;;;14.60;93.00;;;;;;6206165;28;20528;-80
2023/01/03 14:42:57;;;;;;;1.42;1.10;;;14.10;93.30;;;;;;6221691;28;20050;-79
2023/01/03 14:46:04;;;;;;;1.83;1.33;;;13.90;93.70;;;;;;6220901;28;20057;-78
2023/01/03 14:49:16;;;;;;;2.63;1.63;;;13.70;94.10;;;;;;6213767;28;20066;-78
2023/01/03 14:52:24;;;;;;;1.50;1.40;;;13.50;94.40;;;;;;6207357;28;20294;-79
2023/01/03 14:55:28;;;;;;;3.22;1.17;;;13.30;94.80;;;;;;6208605;28;20054;-80
2023/01/03 14:58:35;;;;;;;1.20;1.10;;;13.20;95.00;;;;;;6189765;28;20062;-79
2023/01/03 15:01:37;;;;;;;0.68;0.68;;;12.90;95.30;;;;;;6200839;28;20050;-78
2023/01/03 15:04:43;;;;;;;2.10;1.02;;;12.60;95.70;;;;;;6202270;28;20050;-80
2023/01/03 15:07:44;;;;;;;1.60;1.50;;;12.30;96.30;;;;;;6205278;28;20390;-78
2023/01/03 15:10:51;;;;;;;2.08;1.10;;;12.10;96.70;;;;;;6201016;28;20531;-79
2023/01/03 15:13:58;;;;;;;3.05;1.08;;;11.90;97.10;;;;;;6202181;28;20054;-78
2023/01/03 15:17:06;;;;;;;2.65;1.00;;;11.70;97.60;;;;;;6205538;28;20049;-78
2023/01/03 15:20:09;;;;;;;2.60;1.27;;;11.60;98.00;;;;;;6204838;28;20209;-78
2023/01/03 15:23:27;;;;;;;1.65;1.20;;;11.40;98.30;;;;;;6188667;28;20047;-78
2023/01/03 15:26:38;;;;;;;5.88;2.50;;;11.30;98.80;;;;;;6190056;28;20050;-77
2023/01/03 15:29:45;;;;;;;2.78;1.35;;;11.10;99.10;;;;;;6182400;28;20082;-78
2023/01/03 15:32:51;;;;;;;10.52;1.98;;;11.00;99.40;;;;;;6195037;28;20046;-78
2023/01/03 15:35:54;;;;;;;5.00;1.80;;;10.80;99.70;;;;;;6182238;28;20153;-77
2023/01/03 15:38:56;;;;;;;5.57;4.93;;;10.70;99.90;;;;;;6180018;28;20413;-78
2023/01/03 15:45:25;;;;;;;5.55;1.80;;;10.40;99.90;;;;;;6204277;28;20504;-79
2023/01/03 15:48:27;;;;;;;3.05;1.50;;;10.20;99.90;;;;;;6204724;28;20046;-77
2023/01/03 15:51:29;;;;;;;6.35;2.70;;;10.10;99.90;;;;;;6203898;28;20049;-77
2023/01/03 15:54:31;;;;;;;4.03;1.90;;;10.00;99.90;;;;;;6203480;28;20054;-77
2023/01/03 15:57:33;;;;;;;6.45;1.80;;;9.90;99.90;;;;;;6204862;28;20050;-79
2023/01/03 16:00:36;;;;;;;2.63;1.60;;;9.70;99.90;;;;;;6204330;28;20053;-78
2023/01/03 16:03:39;;;;;;;2.05;1.75;;;9.70;99.90;;;;;;6197024;28;20608;-79
2023/01/03 16:06:41;;;;;;;6.55;2.17;;;9.50;99.90;;;;;;6205562;28;20054;-79
2023/01/03 16:09:43;;;;;;;3.42;1.95;;;9.40;99.90;;;;;;6196284;28;20058;-80
2023/01/03 16:12:45;;;;;;;2.17;1.77;;;9.30;99.90;;;;;;6203725;28;20053;-80
2023/01/03 16:15:48;;;;;;;5.55;1.88;;;9.10;99.90;;;;;;6180848;28;20050;-79
2023/01/03 16:18:50;;;;;;;4.28;2.20;;;8.90;99.90;;;;;;6181588;28;20047;-79
2023/01/03 16:21:55;;;;;;;5.70;2.30;;;8.80;99.90;;;;;;6197671;28;20054;-78
2023/01/03 16:24:57;;;;;;;5.88;4.40;;;8.70;99.90;;;;;;6179305;28;20066;-79
2023/01/03 16:27:58;;;;;;;5.55;3.00;;;8.60;99.90;;;;;;6179850;28;20046;-79
2023/01/03 16:31:06;;;;;;;1.88;1.42;;;8.50;99.90;;;;;;6192119;28;20046;-79
2023/01/03 16:34:14;;;;;;;;;;;8.40;99.90;;;;;;6197308;28;20050;-78
2023/01/03 16:37:16;;;;;;;2.50;1.65;;;8.20;99.90;;;;;;6203399;28;19922;-79
2023/01/03 16:40:20;;;;;;;4.07;1.83;;;8.10;99.90;;;;;;6201088;28;20424;-78
2023/01/03 16:43:24;;;;;;;2.67;1.60;;;7.90;99.90;;;;;;6199159;28;20408;-77
2023/01/03 16:46:28;;;;;;;2.67;2.13;;;7.80;99.90;;;;;;6198225;28;20042;-78
2023/01/03 16:49:33;;;;;;;6.13;1.33;;;7.70;99.90;;;;;;6195381;28;20058;-78
2023/01/03 16:52:37;;;;;;;2.58;1.63;;;7.60;99.90;;;;;;6199292;28;20058;-78
2023/01/03 16:55:40;;;;;;;1.95;1.23;;;7.50;99.90;;;;;;6199316;28;20066;-78
2023/01/03 16:58:42;;;;;;;4.70;2.28;;;7.30;99.90;;;;;;6197814;28;20046;-78
2023/01/03 17:01:45;;;;;;;3.25;1.50;;;7.20;99.90;;;;;;6196395;28;20050;-78
2023/01/03 17:04:47;;;;;;;2.65;1.60;;;7.20;99.90;;;;;;6191867;28;20050;-77
2023/01/03 17:07:51;;;;;;;7.72;4.07;;;7.10;99.90;;;;;;6194773;28;20046;-77
2023/01/03 17:10:55;;;;;;;8.50;4.13;;;7.00;99.90;;;;;;6191724;28;20053;-77
2023/01/03 17:14:00;;;;;;;5.63;2.95;;;6.90;99.90;;;;;;6185279;28;20442;-77
2023/01/03 17:17:03;;;;;;;2.60;1.90;;;6.90;99.90;;;;;;6197834;28;20049;-78
2023/01/03 17:20:13;;;;;;;2.55;1.67;;;6.80;99.90;;;;;;6197047;28;20053;-77
2023/01/03 17:23:15;;;;;;;3.30;1.70;;;6.70;99.90;;;;;;6196731;28;20077;-77
2023/01/03 17:26:19;;;;;;;4.28;2.15;;;6.60;99.90;;;;;;6188892;28;20077;-78
2023/01/03 17:29:24;;;;;;;4.90;1.85;;;6.60;99.90;;;;;;6182193;28;20046;-77
2023/01/03 17:32:27;;;;;;;5.30;2.20;;;6.50;99.90;;;;;;6189738;28;20047;-77
2023/01/03 17:35:29;;;;;;;5.20;1.92;;;6.40;99.90;;;;;;6187029;28;20619;-77
2023/01/03 17:38:32;;;;;;;3.95;2.15;;;6.40;99.90;;;;;;6186835;28;20061;-77
2023/01/03 17:42:11;;;;;;;3.20;1.70;;;6.30;99.90;;;;;;6185495;28;20057;-78
2023/01/03 17:51:39;;;;;;;175.82;62.55;;;6.10;99.90;;;;;;6197267;28;20054;-77
2023/01/03 17:54:41;;;;;;;148.73;64.45;;;6.10;99.90;;;;;;6197682;28;20570;-78
2023/01/03 17:57:43;;;;;;;192.25;82.18;;;6.10;99.90;;;;;;6197230;28;20089;-77
2023/01/03 18:00:45;;;;;;;44.13;23.05;;;6.10;99.90;;;;;;6197000;28;20046;-77
2023/01/03 18:03:48;;;;;;;16.33;11.40;;;6.20;99.90;;;;;;6188614;28;20058;-77
2023/01/03 18:06:55;;;;;;;14.30;10.57;;;6.20;99.90;;;;;;6197731;28;20056;-77
2023/01/03 18:09:57;;;;;;;14.93;9.93;;;6.10;99.90;;;;;;6200178;28;20165;-78
2023/01/03 18:12:59;;;;;;;8.68;7.53;;;6.20;99.90;;;;;;6194952;28;20049;-78
2023/01/03 18:16:01;;;;;;;7.80;5.25;;;6.20;99.90;;;;;;6190963;28;20064;-77
2023/01/03 18:19:04;;;;;;;6.00;4.55;;;6.10;99.90;;;;;;6178742;28;20043;-79
2023/01/03 18:22:05;;;;;;;9.02;8.32;;;6.10;99.90;;;;;;6189367;28;20054;-80
2023/01/03 18:25:27;;;;;;;173.00;57.00;;;6.20;99.90;;;;;;6273146;23;20053;-87
2023/01/03 18:28:29;;;;;;;27.98;14.90;;;6.30;99.90;;;;;;6263276;28;20127;-85
2023/01/03 18:31:31;;;;;;;20.83;11.40;;;6.40;99.90;;;;;;6263575;28;20140;-83
2023/01/03 18:34:34;;;;;;;38.75;15.38;;;6.60;99.90;;;;;;6263512;28;20056;-84
2023/01/03 18:37:42;;;;;;;36.75;20.02;;;6.70;99.90;;;;;;6266513;28;20057;-85
2023/01/03 19:44:17;;;;;;;6.90;4.47;;;6.60;99.90;;;;;;6123697;28;20149;-86
2023/01/03 20:11:23;;;;;;;4.20;3.60;;;6.20;99.90;;;;;;6260715;28;20060;-84
2023/01/03 20:14:27;;;;;;;7.45;3.45;;;6.20;99.90;;;;;;6252964;28;20054;-84
2023/01/03 20:17:29;;;;;;;9.38;4.25;;;6.20;99.90;;;;;;6265678;28;20037;-84
2023/01/03 20:20:32;;;;;;;6.93;4.32;;;6.20;99.90;;;;;;6304643;28;20139;-84
2023/01/03 20:23:39;;;;;;;4.65;3.83;;;6.30;99.90;;;;;;6278663;28;20105;-83
2023/01/03 20:26:42;;;;;;;4.97;4.40;;;6.40;99.90;;;;;;6273555;28;20113;-84
2023/01/03 20:29:44;;;;;;;6.90;4.38;;;6.50;99.90;;;;;;6272316;28;20050;-84
2023/01/03 20:32:46;;;;;;;5.60;3.83;;;6.50;99.90;;;;;;6267772;28;20117;-84
2023/01/03 20:35:48;;;;;;;4.53;4.13;;;6.50;99.90;;;;;;6274416;28;20101;-83
2023/01/03 20:38:52;;;;;;;4.07;3.42;;;6.50;99.90;;;;;;6274619;28;20102;-85
2023/01/03 20:41:56;;;;;;;12.95;5.05;;;6.50;99.90;;;;;;6275848;28;20105;-83
2023/01/03 20:45:19;;;;;;;6.35;5.78;;;6.40;99.90;;;;;;6274981;28;20060;-85
2023/01/03 20:48:23;;;;;;;4.72;4.20;;;6.30;99.90;;;;;;6274092;28;20092;-85
2023/01/03 20:51:25;;;;;;;5.93;4.53;;;6.30;99.90;;;;;;6274512;28;20045;-86
2023/01/03 20:54:27;;;;;;;6.72;4.05;;;6.10;99.90;;;;;;6275017;28;20061;-84